Time;durP1;ratioP1;P1;durP2;ratioP2;P2;SDS_P1;SDS_P2;PMS_P1;PMS_P2;Temp;Humidity;BMP_temperature;BMP_pressure;BME280_temperature;BME280_humidity;BME280_pressure;Samples;Min_cycle;Max_cycle;Signal;HPM_P1;HPM_P2
2021/05/08 00:00:18;;;;;;;;;7.25;3.75;;;;;;;;3502918;40;113807;-75
2021/05/08 00:02:45;;;;;;;;;4.75;4.75;;;;;;;;3506006;40;111921;-75
2021/05/08 00:05:11;;;;;;;;;4.50;3.00;;;;;;;;3502890;40;114396;-78
2021/05/08 00:07:39;;;;;;;;;6.25;4.50;;;;;;;;3503355;40;111896;-75
2021/05/08 00:10:06;;;;;;;;;3.00;3.00;;;;;;;;3503192;40;113973;-75
2021/05/08 00:12:33;;;;;;;;;2.75;2.75;;;;;;;;3503036;40;114168;-75
2021/05/08 00:14:59;;;;;;;;;5.50;5.50;;;;;;;;3503190;40;111997;-75
2021/05/08 00:17:25;;;;;;;;;3.00;3.00;;;;;;;;3503448;40;113582;-75
2021/05/08 00:19:51;;;;;;;;;4.50;4.00;;;;;;;;3502692;40;113806;-75
2021/05/08 00:22:17;;;;;;;;;7.00;5.00;;;;;;;;3505829;40;111939;-75
2021/05/08 00:24:44;;;;;;;;;4.00;4.00;;;;;;;;3502811;40;113914;-75
2021/05/08 00:27:10;;;;;;;;;3.75;2.75;;;;;;;;3501312;40;112411;-75
2021/05/08 00:29:37;;;;;;;;;3.00;2.25;;;;;;;;3503253;40;113310;-75
2021/05/08 00:32:03;;;;;;;;;6.00;6.00;;;;;;;;3502642;40;114167;-75
2021/05/08 00:34:29;;;;;;;;;4.75;4.50;;;;;;;;3503430;40;111920;-75
2021/05/08 00:36:55;;;;;;;;;3.75;3.75;;;;;;;;3503128;40;113285;-75
2021/05/08 00:39:21;;;;;;;;;5.50;4.00;;;;;;;;3502798;40;113865;-76
2021/05/08 00:41:48;;;;;;;;;4.25;3.00;;;;;;;;3503093;40;111830;-76
2021/05/08 00:44:15;;;;;;;;;9.50;5.00;;;;;;;;3505486;40;113275;-76
2021/05/08 00:46:41;;;;;;;;;4.50;4.50;;;;;;;;3501449;40;111886;-76
2021/05/08 00:49:07;;;;;;;;;6.75;5.00;;;;;;;;3503169;40;113245;-73
2021/05/08 00:51:34;;;;;;;;;4.00;4.00;;;;;;;;3502705;40;113460;-74
2021/05/08 00:54:00;;;;;;;;;4.50;4.50;;;;;;;;3503141;40;112027;-75
2021/05/08 00:56:26;;;;;;;;;4.75;2.75;;;;;;;;3502995;40;113498;-76
2021/05/08 00:58:53;;;;;;;;;8.25;5.25;;;;;;;;3502590;40;114596;-75
2021/05/08 01:01:19;;;;;;;;;5.00;5.00;;;;;;;;3503258;40;113431;-74
2021/05/08 01:03:45;;;;;;;;;9.25;8.25;;;;;;;;3503037;40;113304;-74
2021/05/08 01:06:12;;;;;;;;;7.00;5.00;;;;;;;;3505266;40;114992;-75
2021/05/08 01:08:38;;;;;;;;;6.00;4.00;;;;;;;;3502799;40;113854;-74
2021/05/08 01:11:04;;;;;;;;;12.00;5.25;;;;;;;;3502404;40;113917;-75
2021/05/08 01:13:30;;;;;;;;;6.25;6.25;;;;;;;;3503069;40;111906;-75
2021/05/08 01:15:57;;;;;;;;;7.25;5.75;;;;;;;;3502947;40;112794;-75
2021/05/08 01:18:24;;;;;;;;;6.75;4.25;;;;;;;;3502616;40;114092;-76
2021/05/08 01:20:50;;;;;;;;;4.00;3.75;;;;;;;;3503044;40;112127;-74
2021/05/08 01:23:17;;;;;;;;;5.00;5.00;;;;;;;;3503007;40;113596;-75
2021/05/08 01:25:43;;;;;;;;;4.75;4.75;;;;;;;;3502660;40;114462;-75
2021/05/08 01:28:09;;;;;;;;;8.75;6.50;;;;;;;;3503576;40;111958;-75
2021/05/08 01:30:36;;;;;;;;;4.75;3.50;;;;;;;;3502810;40;114045;-74
2021/05/08 01:33:03;;;;;;;;;6.00;4.25;;;;;;;;3502885;40;111898;-75
2021/05/08 01:35:30;;;;;;;;;6.00;4.00;;;;;;;;3503303;40;113734;-75
2021/05/08 01:37:56;;;;;;;;;2.00;2.00;;;;;;;;3502426;40;114507;-76
2021/05/08 01:40:27;;;;;;;;;3.50;3.00;;;;;;;;3502938;40;112059;-76
2021/05/08 01:42:53;;;;;;;;;5.25;4.00;;;;;;;;3502689;40;113281;-76
2021/05/08 01:45:20;;;;;;;;;3.00;3.00;;;;;;;;3502374;40;113929;-75
2021/05/08 01:47:47;;;;;;;;;5.00;5.00;;;;;;;;3502588;40;111876;-75
2021/05/08 01:50:14;;;;;;;;;1.00;1.00;;;;;;;;3505087;40;113377;-75
2021/05/08 01:52:40;;;;;;;;;7.50;4.25;;;;;;;;3500700;40;111900;-76
2021/05/08 01:55:07;;;;;;;;;5.00;4.00;;;;;;;;3502458;40;113736;-76
2021/05/08 01:57:39;;;;;;;;;4.75;4.25;;;;;;;;3502389;40;114160;-75
2021/05/08 02:00:07;;;;;;;;;3.75;2.50;;;;;;;;3502526;40;112833;-76
2021/05/08 02:02:33;;;;;;;;;4.00;3.00;;;;;;;;3502677;40;113876;-74
2021/05/08 02:04:59;;;;;;;;;3.75;3.75;;;;;;;;3502164;40;114006;-75
2021/05/08 02:07:25;;;;;;;;;5.50;3.50;;;;;;;;3502854;40;112095;-75
2021/05/08 02:09:51;;;;;;;;;2.25;2.25;;;;;;;;3502588;40;113926;-75
2021/05/08 02:12:17;;;;;;;;;5.00;4.00;;;;;;;;3504740;40;113946;-74
2021/05/08 02:14:44;;;;;;;;;6.00;4.00;;;;;;;;3502571;40;113355;-75
2021/05/08 02:17:10;;;;;;;;;3.00;3.00;;;;;;;;3500398;40;114073;-74
2021/05/08 02:19:36;;;;;;;;;4.00;3.00;;;;;;;;3503038;40;112045;-74
2021/05/08 02:22:02;;;;;;;;;3.75;3.75;;;;;;;;3503731;40;113460;-74
2021/05/08 02:24:28;;;;;;;;;3.25;2.75;;;;;;;;3503477;40;113847;-74
2021/05/08 02:26:54;;;;;;;;;4.75;4.00;;;;;;;;3503902;40;111916;-74
2021/05/08 02:29:20;;;;;;;;;4.50;3.00;;;;;;;;3503698;40;113444;-75
2021/05/08 02:31:47;;;;;;;;;4.50;4.00;;;;;;;;3506030;40;114191;-75
2021/05/08 02:34:14;;;;;;;;;3.25;3.25;;;;;;;;3503767;40;113189;-75
2021/05/08 02:36:40;;;;;;;;;4.25;3.00;;;;;;;;3501331;40;114467;-75
2021/05/08 02:39:06;;;;;;;;;3.50;3.50;;;;;;;;3503766;40;112053;-75
2021/05/08 02:41:32;;;;;;;;;3.50;3.50;;;;;;;;3503758;40;113925;-75
2021/05/08 02:43:58;;;;;;;;;6.00;3.25;;;;;;;;3503063;40;114315;-75
2021/05/08 02:46:24;;;;;;;;;4.50;2.00;;;;;;;;3503893;40;112449;-74
2021/05/08 02:48:51;;;;;;;;;3.75;2.50;;;;;;;;3503724;40;113702;-75
2021/05/08 02:51:17;;;;;;;;;3.25;3.00;;;;;;;;3503267;40;114702;-75
2021/05/08 02:53:43;;;;;;;;;7.00;3.50;;;;;;;;3506501;40;111876;-74
2021/05/08 02:56:09;;;;;;;;;4.25;2.75;;;;;;;;3503154;40;114361;-74
2021/05/08 02:58:35;;;;;;;;;5.75;4.00;;;;;;;;3503885;40;112086;-75
2021/05/08 03:01:01;;;;;;;;;5.00;5.00;;;;;;;;3503464;40;113158;-74
2021/05/08 03:03:27;;;;;;;;;3.25;3.00;;;;;;;;3503295;40;114284;-75
2021/05/08 03:05:54;;;;;;;;;4.00;2.25;;;;;;;;3503585;40;112248;-75
2021/05/08 03:08:20;;;;;;;;;3.00;2.75;;;;;;;;3503508;40;113324;-74
2021/05/08 03:10:46;;;;;;;;;3.75;3.00;;;;;;;;3502957;40;113920;-74
2021/05/08 03:13:12;;;;;;;;;6.50;4.75;;;;;;;;3503631;40;111750;-74
2021/05/08 03:15:38;;;;;;;;;3.00;3.00;;;;;;;;3505785;40;113330;-74
2021/05/08 03:18:05;;;;;;;;;3.00;3.00;;;;;;;;3503400;40;112651;-74
2021/05/08 03:20:31;;;;;;;;;2.50;2.00;;;;;;;;3503565;40;113373;-76
2021/05/08 03:22:58;;;;;;;;;2.75;2.75;;;;;;;;3502964;40;113806;-74
2021/05/08 03:25:24;;;;;;;;;3.00;3.00;;;;;;;;3503554;40;111927;-76
2021/05/08 03:27:50;;;;;;;;;4.75;1.50;;;;;;;;3503771;40;113412;-74
2021/05/08 03:30:16;;;;;;;;;3.00;2.25;;;;;;;;3503262;40;113863;-74
2021/05/08 03:32:42;;;;;;;;;5.00;2.00;;;;;;;;3503379;40;111830;-74
2021/05/08 03:35:09;;;;;;;;;4.75;2.75;;;;;;;;3503440;40;114220;-74
2021/05/08 03:37:35;;;;;;;;;2.25;2.25;;;;;;;;3505761;40;114215;-73
2021/05/08 03:40:02;;;;;;;;;6.50;4.00;;;;;;;;3503334;40;113371;-75
2021/05/08 03:42:28;;;;;;;;;2.00;2.00;;;;;;;;3503089;40;114110;-75
2021/05/08 03:44:55;;;;;;;;;5.00;4.00;;;;;;;;3503260;40;111906;-76
2021/05/08 03:47:21;;;;;;;;;7.75;4.00;;;;;;;;3503901;40;113133;-75
2021/05/08 03:49:47;;;;;;;;;7.00;3.75;;;;;;;;3503236;40;113845;-76
2021/05/08 03:52:13;;;;;;;;;3.75;3.00;;;;;;;;3503778;40;111848;-76
2021/05/08 03:54:39;;;;;;;;;2.75;2.75;;;;;;;;3501682;40;113120;-75
2021/05/08 03:57:06;;;;;;;;;5.00;2.00;;;;;;;;3502841;40;113853;-74
2021/05/08 03:59:33;;;;;;;;;3.25;3.00;;;;;;;;3506029;40;111880;-74
2021/05/08 04:01:59;;;;;;;;;5.25;3.00;;;;;;;;3502811;40;113848;-75
2021/05/08 04:04:25;;;;;;;;;5.25;4.25;;;;;;;;3503496;40;111912;-76
2021/05/08 04:06:51;;;;;;;;;4.50;3.00;;;;;;;;3503348;40;113711;-75
2021/05/08 04:09:17;;;;;;;;;4.50;2.00;;;;;;;;3502905;40;113899;-77
2021/05/08 04:11:43;;;;;;;;;3.00;2.50;;;;;;;;3503580;40;112067;-76
2021/05/08 04:14:10;;;;;;;;;3.25;3.00;;;;;;;;3501299;40;113894;-79
2021/05/08 04:16:36;;;;;;;;;3.00;3.00;;;;;;;;3503037;40;113985;-80
2021/05/08 04:19:03;;;;;;;;;7.25;5.00;;;;;;;;3503318;40;111767;-79
2021/05/08 04:21:29;;;;;;;;;2.00;2.00;;;;;;;;3505945;40;113519;-79
2021/05/08 04:23:55;;;;;;;;;7.50;3.50;;;;;;;;3503354;40;111916;-76
2021/05/08 04:26:21;;;;;;;;;3.00;3.00;;;;;;;;3503492;40;113719;-77
2021/05/08 04:28:47;;;;;;;;;3.00;3.00;;;;;;;;3502940;40;114107;-78
2021/05/08 04:31:14;;;;;;;;;3.00;2.00;;;;;;;;3502850;40;111806;-76
2021/05/08 04:33:40;;;;;;;;;3.00;2.00;;;;;;;;3501175;40;113044;-78
2021/05/08 04:36:07;;;;;;;;;3.00;2.25;;;;;;;;3502316;40;113983;-77
2021/05/08 04:38:33;;;;;;;;;2.50;1.00;;;;;;;;3503547;40;111787;-78
2021/05/08 04:40:59;;;;;;;;;3.25;2.25;;;;;;;;3504895;40;113441;-78
2021/05/08 04:43:25;;;;;;;;;3.75;3.00;;;;;;;;3501892;40;111981;-77
2021/05/08 04:45:51;;;;;;;;;4.00;4.00;;;;;;;;3502548;40;113777;-79
2021/05/08 04:48:25;;;;;;;;;3.25;3.25;;;;;;;;3502136;40;114280;-79
2021/05/08 04:50:52;;;;;;;;;4.00;4.00;;;;;;;;3501752;40;111864;-78
2021/05/08 04:53:18;;;;;;;;;3.50;3.50;;;;;;;;3502572;40;113291;-78
2021/05/08 04:55:45;;;;;;;;;7.00;3.75;;;;;;;;3502223;40;114008;-78
2021/05/08 04:58:11;;;;;;;;;4.00;3.50;;;;;;;;3498813;40;112082;-79
2021/05/08 05:00:37;;;;;;;;;3.75;3.25;;;;;;;;3501695;40;113327;-78
2021/05/08 05:03:04;;;;;;;;;3.00;3.00;;;;;;;;3499683;40;113904;-78
2021/05/08 05:05:30;;;;;;;;;4.00;3.50;;;;;;;;3501885;40;113335;-77
2021/05/08 05:07:57;;;;;;;;;4.00;4.00;;;;;;;;3501075;40;113889;-77
2021/05/08 05:10:23;;;;;;;;;3.75;2.00;;;;;;;;3502290;40;111935;-79
2021/05/08 05:12:49;;;;;;;;;4.00;3.25;;;;;;;;3503168;40;113597;-75
2021/05/08 05:15:17;;;;;;;;;3.00;3.00;;;;;;;;3502621;40;113904;-75
2021/05/08 05:17:43;;;;;;;;;4.00;2.75;;;;;;;;3503165;40;111898;-76
2021/05/08 05:20:09;;;;;;;;;4.00;4.00;;;;;;;;3503117;40;113480;-76
2021/05/08 05:22:36;;;;;;;;;4.00;3.00;;;;;;;;3502373;40;113955;-75
2021/05/08 05:25:03;;;;;;;;;6.75;3.25;;;;;;;;3505555;40;112047;-75
2021/05/08 05:27:30;;;;;;;;;2.75;2.75;;;;;;;;3500773;40;114161;-76
2021/05/08 05:29:56;;;;;;;;;3.00;3.00;;;;;;;;3502761;40;111920;-76
2021/05/08 05:32:22;;;;;;;;;3.00;3.00;;;;;;;;3502646;40;113707;-75
2021/05/08 05:34:48;;;;;;;;;3.75;3.00;;;;;;;;3502157;40;113810;-75
2021/05/08 05:37:14;;;;;;;;;3.00;3.00;;;;;;;;3503104;40;111947;-74
2021/05/08 05:39:41;;;;;;;;;4.00;2.25;;;;;;;;3500939;40;113335;-73
2021/05/08 05:42:07;;;;;;;;;6.75;2.75;;;;;;;;3502562;40;114132;-73
2021/05/08 05:44:33;;;;;;;;;4.75;3.75;;;;;;;;3502906;40;111891;-74
2021/05/08 05:46:59;;;;;;;;;4.00;4.00;;;;;;;;3503120;40;113693;-72
2021/05/08 05:49:25;;;;;;;;;3.25;3.00;;;;;;;;3502883;40;112096;-72
2021/05/08 05:51:51;;;;;;;;;6.00;4.00;;;;;;;;3502831;40;113192;-72
2021/05/08 05:54:17;;;;;;;;;4.25;4.25;;;;;;;;3503327;40;113892;-72
2021/05/08 05:56:44;;;;;;;;;3.00;2.75;;;;;;;;3504174;40;111866;-71
2021/05/08 05:59:10;;;;;;;;;3.25;3.00;;;;;;;;3502183;40;113219;-75
2021/05/08 06:01:36;;;;;;;;;4.00;4.00;;;;;;;;3502737;40;113887;-75
2021/05/08 06:04:03;;;;;;;;;6.00;3.00;;;;;;;;3500285;40;111964;-75
2021/05/08 06:06:30;;;;;;;;;3.00;3.00;;;;;;;;3502537;40;113504;-76
2021/05/08 06:08:56;;;;;;;;;7.50;3.25;;;;;;;;3505511;40;113862;-75
2021/05/08 06:11:22;;;;;;;;;2.75;2.50;;;;;;;;3503318;40;113287;-73
2021/05/08 06:13:49;;;;;;;;;4.75;3.75;;;;;;;;3502607;40;114037;-72
2021/05/08 06:16:15;;;;;;;;;3.00;3.00;;;;;;;;3503146;40;112671;-72
2021/05/08 06:18:41;;;;;;;;;7.00;3.25;;;;;;;;3502923;40;112245;-72
2021/05/08 06:21:07;;;;;;;;;6.25;3.50;;;;;;;;3502422;40;114028;-72
2021/05/08 06:23:33;;;;;;;;;4.00;4.00;;;;;;;;3502151;40;111851;-74
2021/05/08 06:25:59;;;;;;;;;2.50;2.50;;;;;;;;3502650;39;113028;-73
2021/05/08 06:30:23;;;;;;;;;7.00;5.00;;;;;;;;3473754;39;113663;-72
2021/05/08 06:32:49;;;;;;;;;3.00;3.00;;;;;;;;3534936;39;113883;-73
2021/05/08 06:35:15;;;;;;;;;3.75;3.75;;;;;;;;3530398;39;113021;-74
2021/05/08 06:37:41;;;;;;;;;4.00;4.00;;;;;;;;3530602;39;113179;-74
2021/05/08 06:40:08;;;;;;;;;4.00;3.00;;;;;;;;3528990;39;113848;-72
2021/05/08 06:42:34;;;;;;;;;7.00;3.75;;;;;;;;3530012;39;112506;-73
2021/05/08 06:45:00;;;;;;;;;3.00;3.00;;;;;;;;3530714;39;113634;-74
2021/05/08 06:47:27;;;;;;;;;3.75;2.50;;;;;;;;3530629;39;113846;-80
2021/05/08 06:49:53;;;;;;;;;2.75;2.00;;;;;;;;3533646;39;112025;-77
2021/05/08 06:52:19;;;;;;;;;7.50;1.25;;;;;;;;3529782;39;114081;-75
2021/05/08 06:54:45;;;;;;;;;3.50;3.50;;;;;;;;3531371;39;113242;-76
2021/05/08 06:57:11;;;;;;;;;7.00;4.50;;;;;;;;3531132;39;113307;-76
2021/05/08 06:59:37;;;;;;;;;6.50;5.50;;;;;;;;3531533;39;113950;-76
2021/05/08 07:02:04;;;;;;;;;8.50;4.50;;;;;;;;3531285;39;111813;-77
2021/05/08 07:04:31;;;;;;;;;3.75;3.75;;;;;;;;3531286;39;113331;-77
2021/05/08 07:06:57;;;;;;;;;11.00;8.25;;;;;;;;3530760;39;114123;-76
2021/05/08 07:09:23;;;;;;;;;12.00;5.00;;;;;;;;3530557;39;112176;-76
2021/05/08 07:11:50;;;;;;;;;5.75;5.75;;;;;;;;3532198;39;113227;-76
2021/05/08 07:14:16;;;;;;;;;5.50;5.50;;;;;;;;3528858;39;112045;-75
2021/05/08 07:16:42;;;;;;;;;5.75;5.75;;;;;;;;3529601;39;113536;-74
2021/05/08 07:19:08;;;;;;;;;6.25;6.25;;;;;;;;3530127;39;114020;-72
2021/05/08 07:21:35;;;;;;;;;10.50;7.50;;;;;;;;3530509;39;112117;-75
2021/05/08 07:24:01;;;;;;;;;6.50;6.50;;;;;;;;3531149;39;113355;-73
2021/05/08 07:26:27;;;;;;;;;9.00;6.00;;;;;;;;3530842;39;114368;-72
2021/05/08 07:28:53;;;;;;;;;8.50;7.00;;;;;;;;3531133;39;111925;-71
2021/05/08 07:31:19;;;;;;;;;7.75;5.50;;;;;;;;3531388;39;113478;-71
2021/05/08 07:33:45;;;;;;;;;8.75;7.75;;;;;;;;3533522;39;114657;-73
2021/05/08 07:36:11;;;;;;;;;7.00;6.75;;;;;;;;3527288;39;113131;-78
2021/05/08 07:38:38;;;;;;;;;5.50;5.50;;;;;;;;3529971;39;114060;-75
2021/05/08 07:41:04;;;;;;;;;8.00;6.25;;;;;;;;3525304;39;112968;-76
2021/05/08 07:43:30;;;;;;;;;6.75;5.25;;;;;;;;3523494;39;114072;-71
2021/05/08 07:45:56;;;;;;;;;5.25;5.25;;;;;;;;3523424;39;114500;-73
2021/05/08 07:48:22;;;;;;;;;7.00;6.00;;;;;;;;3520601;39;112219;-74
2021/05/08 07:50:49;;;;;;;;;5.00;5.00;;;;;;;;3522140;39;112270;-74
2021/05/08 07:53:15;;;;;;;;;6.00;5.00;;;;;;;;3524021;39;113872;-75
2021/05/08 07:55:42;;;;;;;;;9.50;8.00;;;;;;;;3526350;39;113296;-76
2021/05/08 07:58:08;;;;;;;;;6.25;6.25;;;;;;;;3523948;39;113870;-79
2021/05/08 08:00:34;;;;;;;;;5.75;5.50;;;;;;;;3519924;39;112243;-75
2021/05/08 08:03:01;;;;;;;;;5.75;5.00;;;;;;;;3521897;39;114750;-75
2021/05/08 08:05:27;;;;;;;;;5.00;5.00;;;;;;;;3522386;39;113926;-77
2021/05/08 08:07:53;;;;;;;;;6.25;6.00;;;;;;;;3522608;39;112422;-74
2021/05/08 08:10:19;;;;;;;;;7.00;6.00;;;;;;;;3523641;39;113188;-73
2021/05/08 08:12:46;;;;;;;;;6.67;6.00;;;;;;;;3523346;39;114432;-73
2021/05/08 08:15:13;;;;;;;;;5.67;5.67;;;;;;;;3523852;39;111782;-73
2021/05/08 08:17:39;;;;;;;;;10.33;9.00;;;;;;;;3526054;39;113835;-73
2021/05/08 08:20:06;;;;;;;;;6.00;6.00;;;;;;;;3523568;39;114075;-73
2021/05/08 08:22:32;;;;;;;;;5.67;5.67;;;;;;;;3523863;39;113234;-76
2021/05/08 08:24:59;;;;;;;;;4.67;4.00;;;;;;;;3523214;39;114151;-79
2021/05/08 08:27:25;;;;;;;;;3.67;3.67;;;;;;;;3523831;39;111849;-77
2021/05/08 08:29:52;;;;;;;;;4.67;4.00;;;;;;;;3523277;39;113134;-77
2021/05/08 08:32:19;;;;;;;;;3.67;2.33;;;;;;;;3523450;39;114182;-75
2021/05/08 08:34:45;;;;;;;;;4.67;4.00;;;;;;;;3521459;39;113161;-78
2021/05/08 08:37:11;;;;;;;;;4.00;4.00;;;;;;;;3523240;39;113284;-76
2021/05/08 08:39:37;;;;;;;;;4.67;4.33;;;;;;;;3525155;39;112930;-72
2021/05/08 08:42:04;;;;;;;;;5.33;5.33;;;;;;;;3523971;39;113416;-75
2021/05/08 08:44:30;;;;;;;;;4.67;4.67;;;;;;;;3523723;39;114001;-72
2021/05/08 08:46:57;;;;;;;;;2.00;2.00;;;;;;;;3524107;39;111844;-72
2021/05/08 08:49:23;;;;;;;;;6.00;4.33;;;;;;;;3524285;39;113109;-72
2021/05/08 08:51:49;;;;;;;;;4.33;4.33;;;;;;;;3522434;39;114090;-72
2021/05/08 08:54:15;;;;;;;;;5.00;5.00;;;;;;;;3522210;39;112030;-71
2021/05/08 08:56:45;;;;;;;;;5.00;3.67;;;;;;;;3523910;39;113746;-71
2021/05/08 08:59:18;;;;;;;;;6.00;6.00;;;;;;;;3525297;39;113017;-71
2021/05/08 09:01:46;;;;;;;;;3.00;3.00;;;;;;;;3523906;39;113284;-71
2021/05/08 09:04:13;;;;;;;;;5.00;5.00;;;;;;;;3520761;39;113311;-71
2021/05/08 09:06:39;;;;;;;;;4.00;3.00;;;;;;;;3523712;39;111825;-71
2021/05/08 09:09:08;;;;;;;;;3.67;3.67;;;;;;;;3523387;39;114206;-71
2021/05/08 09:11:34;;;;;;;;;4.00;3.33;;;;;;;;3523668;39;114715;-73
2021/05/08 09:14:19;;;;;;;;;5.00;5.00;;;;;;;;3524149;39;111896;-78
2021/05/08 09:17:02;;;;;;;;;4.00;4.00;;;;;;;;3522514;39;113287;-74
2021/05/08 09:19:29;;;;;;;;;4.00;4.00;;;;;;;;3523765;39;114684;-73
2021/05/08 09:21:55;;;;;;;;;5.00;5.00;;;;;;;;3526689;39;111845;-73
2021/05/08 09:24:21;;;;;;;;;5.33;5.33;;;;;;;;3523730;39;114246;-74
2021/05/08 09:26:50;;;;;;;;;4.67;4.67;;;;;;;;3524070;39;111955;-75
2021/05/08 09:29:16;;;;;;;;;9.00;6.00;;;;;;;;3524088;39;113173;-74
2021/05/08 09:31:50;;;;;;;;;6.00;6.00;;;;;;;;3523816;39;114061;-71
2021/05/08 09:34:17;;;;;;;;;5.00;3.00;;;;;;;;3522445;39;112118;-72
2021/05/08 09:36:51;;;;;;;;;5.00;5.00;;;;;;;;3524123;39;113820;-71
2021/05/08 09:39:26;;;;;;;;;6.00;5.33;;;;;;;;3522276;39;113809;-70
2021/05/08 09:41:52;;;;;;;;;7.33;6.33;;;;;;;;3523995;39;112170;-71
2021/05/08 09:44:18;;;;;;;;;6.00;3.33;;;;;;;;3526203;39;113111;-72
2021/05/08 09:46:44;;;;;;;;;6.67;4.33;;;;;;;;3523898;39;112008;-72
2021/05/08 09:49:11;;;;;;;;;6.00;4.67;;;;;;;;3524041;39;113301;-72
2021/05/08 09:51:37;;;;;;;;;3.00;2.00;;;;;;;;3523566;39;114229;-74
2021/05/08 09:54:12;;;;;;;;;4.33;4.00;;;;;;;;3523880;39;112294;-74
2021/05/08 09:56:39;;;;;;;;;6.00;5.67;;;;;;;;3524009;39;113132;-71
2021/05/08 09:59:23;;;;;;;;;4.67;4.00;;;;;;;;3523098;39;114838;-71
2021/05/08 10:01:49;;;;;;;;;5.00;5.00;;;;;;;;3523494;39;112295;-71
2021/05/08 10:04:28;;;;;;;;;3.67;2.00;;;;;;;;3523756;39;113421;-71
2021/05/08 10:07:06;;;;;;;;;7.00;5.00;;;;;;;;3526039;39;113788;-71
2021/05/08 10:09:34;;;;;;;;;7.00;5.67;;;;;;;;3523735;39;113804;-72
2021/05/08 10:12:01;;;;;;;;;3.67;3.67;;;;;;;;3523394;39;114281;-72
2021/05/08 10:14:27;;;;;;;;;3.33;3.00;;;;;;;;3524053;39;112180;-72
2021/05/08 10:16:54;;;;;;;;;2.33;2.33;;;;;;;;3523813;39;113661;-72
2021/05/08 10:19:20;;;;;;;;;5.33;4.67;;;;;;;;3523419;39;114015;-71
2021/05/08 10:21:47;;;;;;;;;3.33;3.33;;;;;;;;3523360;39;112451;-71
2021/05/08 10:24:13;;;;;;;;;5.00;4.33;;;;;;;;3523329;39;113320;-71
2021/05/08 10:26:41;;;;;;;;;5.00;4.33;;;;;;;;3521655;39;114235;-71
2021/05/08 10:29:07;;;;;;;;;5.00;5.00;;;;;;;;3525838;39;111941;-71
2021/05/08 10:31:33;;;;;;;;;6.33;5.00;;;;;;;;3522645;39;114378;-71
2021/05/08 10:33:59;;;;;;;;;6.00;6.00;;;;;;;;3522448;39;111825;-72
2021/05/08 14:13:50;;;;;;;;;5.50;4.00;;;;;;;;3560383;39;906985;-73
2021/05/08 14:16:16;;;;;;;;;4.50;3.75;;;;;;;;3578056;39;113889;-75
2021/05/08 14:18:42;;;;;;;;;4.25;4.25;;;;;;;;3575515;39;111774;-73
2021/05/08 14:21:08;;;;;;;;;4.00;4.00;;;;;;;;3577243;39;113604;-75
2021/05/08 14:23:34;;;;;;;;;3.75;3.75;;;;;;;;3575371;39;115462;-74
2021/05/08 14:26:04;;;;;;;;;4.00;4.00;;;;;;;;3576905;39;111917;-75
2021/05/08 14:28:30;;;;;;;;;4.75;4.00;;;;;;;;3575398;39;113202;-75
2021/05/08 14:30:57;;;;;;;;;3.75;3.75;;;;;;;;3576021;39;113910;-74
2021/05/08 14:33:23;;;;;;;;;6.25;4.50;;;;;;;;3578862;39;111936;-74
2021/05/08 14:35:49;;;;;;;;;5.00;4.00;;;;;;;;3575220;39;113847;-74
2021/05/08 14:38:15;;;;;;;;;5.25;5.00;;;;;;;;3576318;39;111803;-75
2021/05/08 14:40:41;;;;;;;;;4.75;4.00;;;;;;;;3575616;39;113229;-75
2021/05/08 14:43:07;;;;;;;;;4.00;4.00;;;;;;;;3575101;39;113934;-76
2021/05/08 14:45:33;;;;;;;;;5.00;5.00;;;;;;;;3576473;39;112068;-74
2021/05/08 14:48:00;;;;;;;;;6.00;4.25;;;;;;;;3575862;39;112803;-74
2021/05/08 14:50:26;;;;;;;;;3.25;3.25;;;;;;;;3575806;39;113997;-75
2021/05/08 14:52:52;;;;;;;;;4.00;4.00;;;;;;;;3576241;39;111789;-75
2021/05/08 14:55:18;;;;;;;;;5.00;4.00;;;;;;;;3577973;39;113320;-75
2021/05/08 14:57:44;;;;;;;;;4.25;3.25;;;;;;;;3576980;39;111790;-75
2021/05/08 15:00:11;;;;;;;;;5.00;4.00;;;;;;;;3575410;39;113389;-75
2021/05/08 15:02:37;;;;;;;;;4.75;3.75;;;;;;;;3576490;39;113828;-74
2021/05/08 15:05:04;;;;;;;;;4.25;4.25;;;;;;;;3578487;39;113785;-73
2021/05/08 15:07:30;;;;;;;;;4.00;4.00;;;;;;;;3578410;39;114041;-74
2021/05/08 15:09:56;;;;;;;;;5.00;3.00;;;;;;;;3576885;39;114210;-75
2021/05/08 15:12:22;;;;;;;;;5.00;2.75;;;;;;;;3575437;39;111914;-74
2021/05/08 15:14:48;;;;;;;;;3.00;3.00;;;;;;;;3576720;39;113011;-74
2021/05/08 15:17:14;;;;;;;;;6.00;4.00;;;;;;;;3577627;39;114006;-75
2021/05/08 15:19:40;;;;;;;;;2.00;2.00;;;;;;;;3575719;39;112512;-75
2021/05/08 15:22:07;;;;;;;;;3.00;3.00;;;;;;;;3575181;39;113874;-75
2021/05/08 15:24:35;;;;;;;;;5.00;3.25;;;;;;;;3570172;39;111901;-76
2021/05/08 15:27:04;;;;;;;;;4.25;3.50;;;;;;;;3569216;39;113253;-75
2021/05/08 15:29:30;;;;;;;;;5.00;4.00;;;;;;;;3568617;39;113824;-75
2021/05/08 15:31:56;;;;;;;;;3.00;3.00;;;;;;;;3567221;39;112075;-76
2021/05/08 15:34:24;;;;;;;;;4.00;4.00;;;;;;;;3568537;39;113833;-75
2021/05/08 15:36:50;;;;;;;;;3.50;3.50;;;;;;;;3569572;39;113771;-75
2021/05/08 15:39:18;;;;;;;;;3.50;3.50;;;;;;;;3570837;39;112025;-75
2021/05/08 15:41:44;;;;;;;;;3.00;3.00;;;;;;;;3569847;39;113913;-75
2021/05/08 15:44:11;;;;;;;;;3.50;3.50;;;;;;;;3570396;39;111924;-76
2021/05/08 15:46:37;;;;;;;;;6.00;4.00;;;;;;;;3569457;39;113762;-76
2021/05/08 15:49:04;;;;;;;;;4.50;4.50;;;;;;;;3567858;39;113828;-77
2021/05/08 15:51:30;;;;;;;;;5.75;4.25;;;;;;;;3571252;39;111979;-76
2021/05/08 15:53:56;;;;;;;;;5.00;4.00;;;;;;;;3511483;39;113163;-76
2021/05/08 15:56:24;;;;;;;;;6.25;4.50;;;;;;;;3550443;39;114118;-76
2021/05/08 15:58:50;;;;;;;;;6.50;4.00;;;;;;;;3547268;39;111995;-73
2021/05/08 16:01:16;;;;;;;;;4.00;4.00;;;;;;;;3549010;39;113400;-76
2021/05/08 16:03:42;;;;;;;;;4.25;4.25;;;;;;;;3547630;39;111819;-75
2021/05/08 16:06:08;;;;;;;;;3.00;3.00;;;;;;;;3549328;39;113775;-74
2021/05/08 16:08:34;;;;;;;;;5.00;5.00;;;;;;;;3545632;39;113897;-75
2021/05/08 16:11:00;;;;;;;;;6.25;4.25;;;;;;;;3548884;39;111892;-73
2021/05/08 16:13:27;;;;;;;;;8.00;5.50;;;;;;;;3550056;39;113700;-78
2021/05/08 16:15:53;;;;;;;;;5.75;5.00;;;;;;;;3548153;39;114324;-76
2021/05/08 16:18:19;;;;;;;;;6.25;5.25;;;;;;;;3549178;39;112319;-75
2021/05/08 16:20:45;;;;;;;;;5.50;5.00;;;;;;;;3549744;39;113221;-77
2021/05/08 16:23:11;;;;;;;;;4.75;4.75;;;;;;;;3550275;39;113043;-79
2021/05/08 16:25:38;;;;;;;;;5.00;5.00;;;;;;;;3551277;39;112591;-78
2021/05/08 16:28:04;;;;;;;;;6.25;6.00;;;;;;;;3549944;39;113825;-78
2021/05/08 16:30:31;;;;;;;;;7.00;6.00;;;;;;;;3550655;39;112400;-75
2021/05/08 16:32:57;;;;;;;;;7.50;7.25;;;;;;;;3551860;39;113193;-68
2021/05/08 16:35:23;;;;;;;;;9.00;8.00;;;;;;;;3547734;39;114271;-69
2021/05/08 16:37:49;;;;;;;;;8.75;8.25;;;;;;;;3546347;39;112942;-68
2021/05/08 16:40:15;;;;;;;;;6.75;5.00;;;;;;;;3545652;39;112896;-75
2021/05/08 16:42:41;;;;;;;;;6.25;5.00;;;;;;;;3551332;39;113909;-78
2021/05/08 16:45:08;;;;;;;;;6.00;6.00;;;;;;;;3546913;39;112302;-75
2021/05/08 16:47:35;;;;;;;;;5.50;4.25;;;;;;;;3547596;39;114076;-76
2021/05/08 16:50:03;;;;;;;;;8.00;6.00;;;;;;;;3549017;39;111927;-74
2021/05/08 16:52:32;;;;;;;;;7.00;6.00;;;;;;;;3549149;39;113164;-77
2021/05/08 16:54:59;;;;;;;;;5.50;5.50;;;;;;;;3549552;39;114302;-78
2021/05/08 16:57:26;;;;;;;;;7.25;5.25;;;;;;;;3548717;39;113124;-78
2021/05/08 16:59:52;;;;;;;;;5.00;5.00;;;;;;;;3548307;39;113646;-77
2021/05/08 17:02:19;;;;;;;;;5.75;5.75;;;;;;;;3548817;39;113836;-78
2021/05/08 17:04:46;;;;;;;;;6.25;4.75;;;;;;;;3546784;39;111851;-76
2021/05/08 17:07:13;;;;;;;;;7.00;4.00;;;;;;;;3547726;39;113974;-76
2021/05/08 17:09:41;;;;;;;;;4.25;4.25;;;;;;;;3549045;39;111943;-78
2021/05/08 17:12:07;;;;;;;;;4.75;4.75;;;;;;;;3551216;39;113792;-76
2021/05/08 17:14:33;;;;;;;;;4.00;4.00;;;;;;;;3550298;39;113712;-77
2021/05/08 17:16:59;;;;;;;;;6.75;3.75;;;;;;;;3548849;39;111859;-76
2021/05/08 17:19:25;;;;;;;;;5.00;5.00;;;;;;;;3548065;39;113567;-76
2021/05/08 17:21:52;;;;;;;;;4.00;1.25;;;;;;;;3548748;39;113936;-77
2021/05/08 17:24:18;;;;;;;;;3.75;3.00;;;;;;;;3547571;39;112099;-76
2021/05/08 17:26:44;;;;;;;;;5.00;4.00;;;;;;;;3551503;39;113281;-76
2021/05/08 17:29:10;;;;;;;;;4.25;4.25;;;;;;;;3547762;39;112085;-75
2021/05/08 17:31:36;;;;;;;;;6.25;6.00;;;;;;;;3548750;39;113220;-75
2021/05/08 17:34:03;;;;;;;;;2.00;2.00;;;;;;;;3547798;39;114803;-76
2021/05/08 17:36:29;;;;;;;;;3.00;3.00;;;;;;;;3548061;39;111791;-74
2021/05/08 17:39:01;;;;;;;;;4.50;4.00;;;;;;;;3552611;39;113051;-77
2021/05/08 17:41:27;;;;;;;;;5.25;4.00;;;;;;;;3551390;39;116433;-76
2021/05/08 17:43:53;;;;;;;;;6.00;5.00;;;;;;;;3552414;39;112650;-75
2021/05/08 17:46:19;;;;;;;;;6.00;5.25;;;;;;;;3549908;39;113520;-77
2021/05/08 17:48:47;;;;;;;;;5.00;5.00;;;;;;;;3554194;39;114139;-76
2021/05/08 17:51:13;;;;;;;;;3.00;3.00;;;;;;;;3552260;39;113501;-75
2021/05/08 17:53:39;;;;;;;;;3.00;2.00;;;;;;;;3550802;39;113982;-75
2021/05/08 17:56:06;;;;;;;;;6.25;5.25;;;;;;;;3552421;39;112181;-75
2021/05/08 17:58:32;;;;;;;;;4.00;4.00;;;;;;;;3552016;39;113124;-75
2021/05/08 18:00:58;;;;;;;;;6.25;3.75;;;;;;;;3552371;39;113786;-75
2021/05/08 18:03:24;;;;;;;;;5.00;4.00;;;;;;;;3552148;39;112127;-74
2021/05/08 18:05:51;;;;;;;;;4.00;4.00;;;;;;;;3552603;39;113179;-76